Date,TemperatureHighF,TemperatureAvgF,TemperatureLowF,DewpointHighF,DewpointAvgF,DewpointLowF,HumidityHigh,HumidityAvg,HumidityLow,PressureMaxIn,PressureMinIn,WindSpeedMaxMPH,WindSpeedAvgMPH,GustSpeedMaxMPH,PrecipitationSumIn
2013-1-1,46.6,41.9,37.4,41.8,32.7,13.9,97,72,30,30.00,29.85,24,7,24,0.02
2013-1-2,53.8,35.6,27.7,37.1,25.1,10.4,99,67,36,30.12,29.86,18,4,18,0.01
2013-1-3,45.0,32.7,26.8,33.9,20.7,12.7,81,64,30,30.17,29.69,18,3,18,0.00
2013-1-4,46.2,34.2,26.6,22.4,19.2,16.4,67,54,36,30.22,29.50,29,8,29,0.00
2013-1-5,55.4,39.1,28.2,29.4,21.0,15.3,74,50,30,30.32,29.71,24,6,24,0.00
2013-1-6,50.0,40.0,28.9,32.8,28.7,24.9,93,65,45,30.14,30.00,15,5,15,0.01
2013-1-7,52.3,38.5,28.4,28.3,23.7,19.5,71,56,33,30.37,30.11,17,6,17,0.00
2013-1-10,50.9,44.6,30.2,34.5,32.3,22.6,73,63,33,30.40,29.96,6,3,6,1.56
2013-1-11,50.2,43.3,39.6,42.7,38.1,29.4,99,85,47,30.36,30.07,12,3,12,0.08
2013-1-12,52.2,41.6,40.1,51.7,41.4,39.8,99,99,99,30.11,30.07,5,2,5,0.00
2013-1-15,48.0,40.6,37.8,47.8,40.4,37.5,99,99,99,30.14,30.02,8,2,8,0.59
2013-1-16,51.8,42.7,37.0,51.5,42.4,36.8,99,99,99,30.03,29.83,15,4,15,0.26
2013-1-17,46.4,37.3,32.0,45.9,36.5,31.8,99,97,82,30.05,29.94,12,2,12,0.73
2013-1-18,48.7,33.3,21.7,31.8,22.5,15.6,99,69,34,30.40,30.01,21,3,97,0.89
2013-1-19,55.4,33.6,16.9,33.4,25.4,16.6,99,76,34,30.36,30.01,17,4,17,0.06
2013-1-20,55.8,44.6,31.6,32.9,25.0,13.3,79,48,30,30.02,29.91,30,11,30,0.00
2013-1-21,54.7,37.6,22.8,26.5,16.2,1.8,93,45,30,30.08,29.79,29,9,29,0.00
2013-1-22,29.3,21.5,15.8,5.3,-1.6,-6.3,47,36,30,30.16,29.90,25,8,25,0.00
2013-1-23,35.6,23.7,15.8,15.3,4.1,-5.1,63,43,30,30.21,29.93,43,7,43,0.00
2013-1-24,50.4,23.8,16.0,33.8,6.5,-3.8,76,49,30,30.41,29.89,39,9,39,0.00
2013-1-25,35.8,23.9,16.0,30.6,18.3,2.3,99,80,43,30.39,29.93,23,5,23,0.00
2013-1-26,44.1,32.8,26.6,28.9,21.4,16.8,77,63,47,30.34,29.93,24,8,24,0.04
2013-1-27,41.2,28.4,15.8,24.6,19.5,13.2,96,71,46,30.46,30.33,17,4,98,0.00
2013-1-28,63.7,44.3,30.9,46.6,38.0,24.8,99,80,48,30.34,30.08,15,4,74,0.12
2013-1-29,76.3,59.6,47.1,52.6,49.0,44.2,98,71,42,30.11,29.94,24,6,24,0.00
2013-1-30,69.4,62.6,49.5,60.4,56.9,48.0,99,82,68,29.95,29.32,35,12,35,0.21
2013-1-31,51.1,36.0,30.9,50.5,23.4,14.2,98,61,42,29.84,29.34,46,16,46,0.06
2013-2-1,36.7,23.8,15.8,32.1,9.0,-0.3,99,54,35,30.26,29.70,26,8,26,0.00
2013-2-2,36.9,24.6,16.0,28.7,17.9,4.5,99,78,32,30.25,29.91,15,4,15,0.00
2013-2-3,44.8,31.7,27.9,30.5,22.7,15.2,99,70,54,29.94,29.75,30,10,30,0.04
2013-2-4,41.4,31.8,22.3,24.4,17.7,11.1,70,56,44,30.03,29.83,20,8,20,0.00
2013-2-5,52.2,37.2,33.1,35.4,28.0,24.4,92,70,51,29.87,29.80,21,6,21,0.00
2013-2-6,58.5,42.6,26.1,34.8,27.0,23.0,94,57,30,30.23,29.86,14,5,14,0.00
2013-2-7,38.3,33.8,26.4,32.1,28.5,23.9,99,81,68,30.28,30.03,11,3,11,0.00
2013-2-8,52.2,36.6,31.1,40.5,31.1,22.9,99,82,52,30.03,29.75,30,6,97,0.31
2013-2-9,52.0,36.4,25.5,23.3,16.8,12.0,75,47,30,30.28,30.02,30,9,30,0.01
2013-2-10,48.7,35.8,25.0,36.4,20.6,15.0,99,59,30,30.36,30.11,15,6,15,0.02
2013-2-11,64.8,47.7,30.6,56.9,37.9,19.6,99,74,30,30.38,29.80,29,7,29,0.04
2013-2-12,61.5,47.9,38.5,29.6,23.1,17.2,62,38,30,29.99,29.83,28,8,28,0.00
2013-2-13,64.8,38.9,36.5,40.4,32.5,25.4,99,79,58,29.88,29.55,18,4,18,0.22
2013-2-14,41.4,35.9,27.1,37.6,26.1,21.4,100,68,50,29.96,29.76,18,6,18,0.00
2013-2-15,62.1,41.0,24.3,37.9,28.2,20.1,99,65,30,29.99,29.82,22,5,22,0.06
2013-2-16,34.5,33.5,32.7,21.4,20.3,19.2,61,58,55,29.89,29.87,13,5,13,0.00
2013-10-22,69.6,59.4,49.5,49.7,42.7,38.7,99,58,33,30.04,29.86,21,4,21,0.00
2013-10-23,58.0,46.8,40.8,53.3,39.1,25.4,99,77,43,30.02,29.76,10,2,21,0.00
2013-10-24,50.7,40.7,29.7,30.7,26.9,21.8,99,60,34,30.21,30.01,12,2,23,0.00
2013-10-25,50.5,38.4,25.9,36.3,22.5,15.0,99,57,26,30.39,30.18,8,2,17,0.00
2013-10-26,60.6,41.4,19.6,29.8,17.0,3.9,99,52,11,30.37,30.04,9,2,17,0.00
2013-10-27,70.0,52.2,37.4,36.8,28.9,14.6,93,45,12,30.17,30.05,8,2,17,0.00
2013-10-28,63.8,47.1,31.3,54.4,41.5,31.0,99,84,44,30.30,30.16,5,1,10,0.00
2013-10-29,71.1,58.5,51.1,59.8,49.4,40.1,99,76,35,30.39,30.29,5,1,8,0.00
2013-10-30,71.4,58.7,52.3,67.1,54.6,46.1,99,88,59,30.33,30.18,22,1,22,0.01
2013-10-31,69.4,62.1,54.0,67.5,55.6,49.9,99,81,52,30.22,29.81,98,11,98,0.01
2013-11-1,79.8,66.3,48.6,62.7,48.9,32.5,96,59,18,29.81,29.67,13,4,27,0.12
2013-11-2,68.9,54.8,42.8,48.3,32.8,18.3,99,51,16,30.00,29.76,12,3,21,0.00
2013-11-3,61.9,47.4,30.2,31.4,26.9,17.8,99,48,18,30.41,30.00,9,3,21,0.00
2013-11-4,56.9,39.6,24.6,34.0,23.2,14.5,99,60,19,30.58,30.41,7,1,13,0.00
2013-11-5,52.5,43.5,30.2,37.1,27.9,17.5,82,56,29,30.62,30.48,3,1,7,0.13
2013-11-6,72.7,55.5,44.4,53.3,43.2,36.9,99,68,29,30.48,30.13,9,2,16,0.15
2013-11-7,58.8,48.2,40.6,56.6,37.3,17.9,99,70,35,30.17,30.00,12,3,23,0.15
2013-11-8,52.0,40.0,27.0,23.1,16.5,6.8,73,41,16,30.34,30.16,12,3,23,0.15
2013-11-9,61.5,41.4,23.2,27.7,16.2,2.5,99,46,10,30.36,30.14,8,2,15,0.31
2013-11-10,66.7,53.5,42.4,26.7,14.9,0.0,40,23,10,30.31,30.07,14,5,30,0.00
2013-11-11,67.3,46.1,26.7,24.4,14.2,-1.0,77,34,10,30.36,30.10,7,2,15,0.00
2013-11-12,54.7,40.7,26.8,29.7,12.4,-2.1,47,32,10,30.46,30.03,14,5,24,0.00
2013-11-13,45.7,32.3,21.9,12.6,3.2,-10.7,58,33,10,30.52,30.41,13,5,34,0.00
2013-11-14,64.7,36.8,18.0,16.4,7.9,-7.3,79,41,10,30.44,30.29,6,2,13,0.00
2013-11-15,65.7,43.0,21.9,47.8,16.8,0.0,99,47,10,30.33,30.19,6,2,15,0.21
2013-11-16,54.3,49.7,45.1,53.9,49.2,44.9,99,98,92,30.31,30.24,3,1,8,0.06
2013-11-17,61.2,55.5,50.7,60.9,55.2,50.4,99,99,92,30.24,29.83,8,2,15,0.09
2013-11-18,67.5,57.6,46.6,60.9,25.5,3.0,99,35,10,30.04,29.81,13,4,29,0.08
2013-11-19,53.9,41.7,28.2,24.2,15.8,6.9,84,38,16,30.34,30.02,14,4,31,0.00
2013-11-20,52.0,37.6,26.8,27.0,17.6,5.0,85,49,18,30.49,30.34,9,2,13,0.00
2013-11-21,53.4,43.3,35.2,43.4,29.6,19.5,99,59,45,30.53,30.04,3,1,6,0.00
2013-11-22,70.9,56.6,44.8,56.6,45.1,35.3,90,66,40,30.42,30.10,8,2,24,0.00
2013-11-23,56.1,45.4,29.4,44.8,21.5,2.5,68,42,13,30.25,30.11,14,5,30,0.00
2013-11-24,32.9,24.7,16.0,3.5,-9.0,-22.5,44,23,10,30.51,30.25,18,6,31,0.00
2013-11-25,42.1,25.8,12.6,6.5,-1.3,-15.0,66,36,10,30.51,30.33,7,1,13,0.00
2013-11-26,35.8,32.6,29.7,35.5,29.4,-0.5,99,91,23,30.33,29.66,5,1,8,0.84
2013-11-27,40.6,32.2,24.3,40.4,20.8,3.9,99,64,41,30.13,29.63,17,6,35,0.02
2013-11-28,44.1,29.7,20.5,17.2,8.1,-2.9,85,44,14,30.44,30.13,16,3,28,0.01
2013-11-29,57.7,31.7,19.4,29.5,14.2,2.4,94,57,13,30.64,30.42,8,2,15,0.00
2013-11-30,46.4,28.3,16.3,22.6,16.2,10.4,99,66,23,30.64,30.35,7,1,14,0.00
2013-12-1,61.5,34.1,15.4,25.7,17.3,0.9,99,60,10,30.35,30.03,8,2,13,0.00
2013-12-2,55.2,43.1,34.3,31.4,26.7,23.0,76,54,29,30.04,29.85,6,1,10,0.00
2013-12-3,65.3,45.1,32.6,39.9,33.2,27.5,99,68,24,30.02,29.88,3,1,10,0.00
2013-12-4,67.0,51.1,41.9,48.8,41.9,36.6,93,73,38,30.09,29.98,5,1,11,0.00
2013-12-5,72.3,58.8,47.1,61.2,52.1,46.9,99,80,46,30.16,29.99,7,2,14,0.01
2013-12-6,62.8,59.2,45.0,62.5,58.8,44.7,99,99,80,30.11,29.92,8,2,21,0.86
2013-12-7,46.1,39.7,33.8,44.5,32.4,25.6,99,76,51,30.47,30.10,8,2,21,0.04
2013-12-8,35.4,31.2,28.2,31.5,27.3,23.7,99,86,67,30.46,30.24,7,1,13,0.00
2013-12-9,54.5,38.1,31.6,43.3,35.8,31.4,99,92,63,30.24,30.05,6,1,14,0.21
2013-12-10,43.3,34.4,29.6,38.4,25.2,9.9,99,73,40,30.27,29.97,10,3,21,0.24
2013-12-11,51.6,35.5,24.4,16.9,9.1,-4.2,58,36,10,30.39,30.24,10,3,20,0.00
2013-12-12,39.7,30.5,25.3,11.8,0.4,-17.5,44,29,10,30.40,30.27,12,3,20,0.00
2013-12-13,53.3,36.3,27.0,18.4,0.0,-12.4,61,25,10,30.35,30.22,10,2,17,0.00
2013-12-14,35.1,32.7,30.2,34.8,31.4,17.3,99,95,57,30.30,29.75,5,1,10,0.38
2013-12-15,42.8,36.7,33.4,41.5,26.0,18.3,99,67,49,30.03,29.71,10,4,23,0.00
2013-12-16,48.5,37.9,29.5,30.1,22.3,17.8,99,55,36,30.13,30.01,9,3,20,0.00
2013-12-17,59.0,40.0,26.6,34.6,27.3,16.5,99,67,24,30.10,29.91,9,4,27,0.08
2013-12-18,44.8,34.7,24.6,18.1,9.8,0.0,65,37,16,30.25,30.02,10,4,21,0.00
2013-12-19,69.3,42.2,21.7,22.4,15.3,0.3,82,42,10,30.24,30.15,9,2,15,0.00
2013-12-20,65.6,48.6,34.0,29.4,17.8,0.9,61,34,10,30.17,30.06,7,2,15,0.00
2013-12-21,70.6,59.2,44.4,55.4,42.0,28.0,66,53,36,30.10,29.94,15,4,29,0.01
2013-12-22,68.0,60.6,54.9,64.5,57.0,51.4,99,89,64,30.10,29.93,14,4,29,0.56
2013-12-23,57.2,48.3,32.0,56.9,42.3,20.6,99,81,57,30.24,29.99,10,2,21,0.99
2013-12-24,41.2,30.0,18.5,23.3,12.2,-3.3,86,49,23,30.45,30.21,13,3,25,0.00
2013-12-25,40.0,23.8,10.2,14.6,3.5,-10.9,91,49,12,30.49,30.31,7,2,14,0.00
2013-12-26,50.2,31.3,15.6,17.0,9.7,-2.2,87,47,15,30.38,30.23,10,2,22,0.00
2013-12-27,57.9,32.9,17.6,24.5,11.1,-7.8,99,53,10,30.44,30.33,7,2,15,0.00
2013-12-28,60.6,37.7,19.6,35.2,14.9,-2.5,92,50,10,30.38,30.16,7,2,14,0.07
2013-12-29,50.9,42.8,37.2,47.2,37.9,32.6,99,84,61,30.16,29.70,12,3,23,1.06
2013-12-30,45.0,39.8,32.5,32.6,25.4,19.3,68,56,47,30.15,29.92,9,2,18,0.00
2013-12-31,46.8,36.2,25.3,23.1,9.0,-4.1,65,35,12,30.34,30.11,13,4,29,0.00
2014-1-1,57.4,34.1,19.1,24.7,12.9,-1.8,92,51,10,30.37,30.10,10,2,21,0.00
2014-1-2,37.8,28.6,16.0,37.2,22.0,-3.1,99,78,39,30.10,29.64,20,2,23,0.18